Pucheng, China
Current Conditions -  °F | °C
As of 8:00 AM on Thursday 18 Dec 2014 (Local Time) from ZSFZ Reporting Station
Scattered Clouds Scattered Clouds  
Wind Chill: 50°   Ceiling: Unl
Heat Index: 50°   Visibility: 6mi
Dew Point: 32°   Wind: 20mph
Humidity: 50%   Direction: 40°NE
Pressure: 30.5"   Gusts: NA
Location:  27.92°N, 118.53°E
Report Text: ZSFZ 180000Z 04009MPS 9999 SCT040 10/00 Q1033 NOSIG
Loading
Personal Weather Stations






























Interactive Weather Map New forecast layout! Learn more

10-Day Weather Forecast

Advertisements
Track Severe Weather on mobile